KAUG/AUG METAR and TAF weather

Enter ICAO airport designator
Station Type Date Time Source
KAUG METAR 2018/06/25 01:53 UTC NOAA

KAUG 250153Z AUTO 00000KT 10SM OVC075 19/16 A2983 RMK AO2 SLP101 T01890161


Station Type Date Time Source
KAUG Decoded METAR 2018/06/25 01:53 UTC NOAA

AUGUSTA STATE AIRPORT, ME, United States (KAUG) 44-19N 069-48W 109M
Jun 24, 2018 - 09:53 PM EDT / 2018.06.25 0153 UTC
Wind: Calm:0
Visibility: 10 mile(s):0
Sky conditions: overcast
Temperature: 66.0 F (18.9 C)
Dew Point: 61.0 F (16.1 C)
Relative Humidity: 83%
Pressure (altimeter): 29.83 in. Hg (1010 hPa)
ob: KAUG 250153Z AUTO 00000KT 10SM OVC075 19/16 A2983 RMK AO2 SLP101 T01890161
cycle: 2

Station Type Date Time Source
KAUG TAF 2018/06/24 18:24 UTC NOAA

TAF KAUG 241722Z 2418/2518 VRB04KT P6SM BKN030
FM250000 VRB03KT 4SM -SHRA BR OVC015
FM250600 00000KT 1SM -SHRA BR OVC003
FM251100 35010KT 4SM -SHRA OVC008
FM251400 35014KT P6SM OVC020


Example: see airport list